Time;durP1;ratioP1;P1;durP2;ratioP2;P2;SDS_P1;SDS_P2;PMS_P1;PMS_P2;Temp;Humidity;BMP_temperature;BMP_pressure;BME280_temperature;BME280_humidity;BME280_pressure;Samples;Min_cycle;Max_cycle;Signal;HPM_P1;HPM_P2
2022/06/13 00:01:49;;;;;;;15.35;6.00;;;12.50;84.40;;;;;;5013087;28;20080;-45
2022/06/13 00:04:14;;;;;;;16.35;6.43;;;12.50;84.40;;;;;;5030292;28;20066;-45
2022/06/13 00:06:43;;;;;;;12.68;5.75;;;12.50;84.40;;;;;;5030231;28;20430;-43
2022/06/13 00:09:10;;;;;;;16.13;5.83;;;12.50;84.60;;;;;;5030445;28;20075;-44
2022/06/13 00:11:37;;;;;;;19.17;7.18;;;12.50;84.70;;;;;;5044047;28;20108;-44
2022/06/13 00:14:04;;;;;;;15.43;5.90;;;12.50;84.80;;;;;;5032374;28;20024;-43
2022/06/13 00:16:31;;;;;;;11.48;6.00;;;12.50;84.80;;;;;;5048156;28;20040;-45
2022/06/13 00:18:58;;;;;;;20.55;5.93;;;12.50;84.80;;;;;;5041912;28;20097;-42
2022/06/13 00:21:31;;;;;;;14.38;6.70;;;12.60;84.80;;;;;;5029381;28;20360;-43
2022/06/13 00:24:01;;;;;;;15.77;5.63;;;12.60;84.80;;;;;;5045493;28;20026;-47
2022/06/13 00:26:29;;;;;;;;;;;12.60;84.70;;;;;;5033465;28;20063;-43
2022/06/13 00:28:56;;;;;;;14.48;5.75;;;12.70;84.60;;;;;;5049590;28;19904;-48
2022/06/13 00:31:25;;;;;;;13.27;6.45;;;12.70;84.40;;;;;;5045716;28;20053;-42
2022/06/13 00:33:55;;;;;;;15.40;6.32;;;12.60;84.50;;;;;;5029688;28;20036;-44
2022/06/13 00:36:23;;;;;;;11.25;5.22;;;12.70;84.50;;;;;;5030876;28;20122;-44
2022/06/13 00:38:51;;;;;;;15.70;6.47;;;12.70;84.40;;;;;;5031842;28;20454;-42
2022/06/13 00:41:27;;;;;;;15.35;5.97;;;12.70;84.60;;;;;;5047843;28;20049;-42
2022/06/13 00:43:55;;;;;;;11.95;5.88;;;12.80;84.50;;;;;;5031864;28;20054;-48
2022/06/13 00:46:29;;;;;;;11.45;4.93;;;12.70;84.50;;;;;;5043417;28;20047;-42
2022/06/13 00:49:18;;;;;;;14.48;5.85;;;12.80;84.40;;;;;;5032105;28;20032;-43
2022/06/13 00:51:50;;;;;;;17.27;6.47;;;12.80;84.50;;;;;;5047153;28;20036;-44
2022/06/13 00:54:20;;;;;;;9.90;4.88;;;12.80;84.20;;;;;;5047283;28;20033;-43
2022/06/13 00:56:49;;;;;;;12.48;5.72;;;12.80;84.30;;;;;;5049375;28;20025;-44
2022/06/13 00:59:19;;;;;;;15.97;6.07;;;12.80;84.40;;;;;;5047515;28;20055;-42
2022/06/13 01:01:47;;;;;;;15.07;6.43;;;12.80;84.40;;;;;;5048551;28;20025;-42
2022/06/13 01:04:14;;;;;;;15.98;5.57;;;12.80;84.40;;;;;;5047424;28;20408;-43
2022/06/13 01:06:48;;;;;;;14.05;5.50;;;12.80;84.40;;;;;;5046478;28;20029;-46
2022/06/13 01:09:18;;;;;;;13.50;5.57;;;12.90;84.30;;;;;;5031685;28;20021;-43
2022/06/13 01:11:50;;;;;;;14.73;5.95;;;12.80;84.10;;;;;;5047394;28;20021;-47
2022/06/13 01:14:50;;;;;;;12.30;5.93;;;12.80;84.00;;;;;;5049011;28;20090;-44
2022/06/13 01:17:50;;;;;;;19.27;6.90;;;12.80;84.10;;;;;;5046357;28;20074;-43
2022/06/13 01:20:37;;;;;;;16.02;5.03;;;12.80;84.40;;;;;;5040801;28;20053;-45
2022/06/13 01:23:24;;;;;;;21.52;6.55;;;12.80;84.50;;;;;;5027456;28;20439;-43
2022/06/13 01:26:02;;;;;;;16.30;6.60;;;12.80;84.60;;;;;;5048809;28;20116;-43
2022/06/13 01:28:46;;;;;;;14.18;6.55;;;12.80;84.40;;;;;;5009053;28;20097;-43
2022/06/13 01:31:29;;;;;;;12.25;5.57;;;12.80;84.50;;;;;;5010515;28;20026;-43
2022/06/13 01:34:15;;;;;;;13.32;5.50;;;12.90;84.50;;;;;;5035551;28;20026;-43
2022/06/13 01:37:11;;;;;;;13.15;5.65;;;12.80;84.40;;;;;;5031804;28;20021;-43
2022/06/13 01:40:04;;;;;;;13.60;5.45;;;12.80;84.50;;;;;;5032955;28;20024;-44
2022/06/13 01:43:07;;;;;;;11.90;5.38;;;12.80;84.40;;;;;;5036687;28;20029;-42
2022/06/13 01:46:05;;;;;;;18.25;6.22;;;12.70;84.30;;;;;;5028783;28;20033;-43
2022/06/13 01:49:01;;;;;;;14.57;5.30;;;12.70;84.00;;;;;;5021263;28;20437;-43
2022/06/13 01:51:57;;;;;;;11.70;5.43;;;12.70;83.90;;;;;;5040061;28;20116;-42
2022/06/13 01:54:41;;;;;;;12.07;5.43;;;12.70;83.90;;;;;;4995976;28;20041;-43
2022/06/13 01:57:34;;;;;;;13.60;5.20;;;12.70;83.80;;;;;;5023510;28;20040;-43
2022/06/13 02:00:20;;;;;;;15.20;5.07;;;12.80;84.00;;;;;;5008328;28;20037;-45
2022/06/13 02:03:13;;;;;;;11.73;5.63;;;12.70;83.90;;;;;;5045285;28;20370;-43
2022/06/13 02:06:05;;;;;;;13.57;5.38;;;12.80;83.90;;;;;;5045183;28;20029;-44
2022/06/13 02:08:45;;;;;;;13.43;5.78;;;12.80;84.10;;;;;;5047979;28;20036;-42
2022/06/13 02:11:34;;;;;;;9.38;5.93;;;12.80;84.20;;;;;;5033816;28;20017;-42
2022/06/13 02:14:15;;;;;;;15.70;6.95;;;12.70;83.90;;;;;;5046534;28;20017;-43
2022/06/13 02:17:09;;;;;;;10.25;6.50;;;12.80;84.10;;;;;;5038680;28;20037;-43
2022/06/13 02:19:55;;;;;;;10.55;5.43;;;12.70;84.10;;;;;;5014553;28;20484;-44
2022/06/13 02:22:47;;;;;;;12.27;6.53;;;12.70;84.30;;;;;;5031614;28;20401;-43
2022/06/13 02:25:52;;;;;;;12.35;5.65;;;12.70;84.50;;;;;;5031480;28;20056;-42
2022/06/13 02:28:46;;;;;;;12.30;5.95;;;12.70;84.60;;;;;;5045472;28;20037;-44
2022/06/13 02:31:15;;;;;;;11.52;6.20;;;12.70;84.70;;;;;;5021671;28;20033;-43
2022/06/13 02:33:54;;;;;;;13.20;6.72;;;12.70;84.70;;;;;;5051914;28;20349;-44
2022/06/13 02:36:37;;;;;;;11.75;5.68;;;12.70;84.70;;;;;;5026801;28;20048;-43
2022/06/13 02:39:27;;;;;;;17.33;5.97;;;12.70;84.80;;;;;;5031306;28;20045;-44
2022/06/13 02:42:20;;;;;;;16.13;6.35;;;12.70;84.90;;;;;;5031469;28;20540;-45
2022/06/13 02:45:19;;;;;;;17.02;7.38;;;12.70;84.80;;;;;;5046328;28;20043;-43
2022/06/13 02:48:07;;;;;;;16.85;6.60;;;12.60;84.90;;;;;;5019361;28;20354;-43
2022/06/13 02:51:12;;;;;;;9.30;5.88;;;12.60;85.00;;;;;;5013604;28;20387;-43
2022/06/13 02:54:00;;;;;;;15.93;6.68;;;12.60;85.20;;;;;;5010729;28;20470;-45
2022/06/13 02:57:23;;;;;;;13.55;7.30;;;12.50;85.30;;;;;;5019662;28;20021;-44
2022/06/13 02:59:34;;;;;;;15.80;6.65;;;12.50;85.20;;;;;;5035629;28;20265;-43
2022/06/13 03:02:04;;;;;;;15.02;6.93;;;12.50;85.40;;;;;;5033973;28;20071;-44
2022/06/13 03:04:52;;;;;;;15.88;8.15;;;12.40;85.40;;;;;;5011487;28;20036;-42
2022/06/13 03:07:39;;;;;;;11.43;6.97;;;12.40;85.40;;;;;;5022483;28;20045;-43
2022/06/13 03:10:21;;;;;;;17.75;8.23;;;12.40;85.60;;;;;;5030604;28;20036;-43
2022/06/13 03:13:09;;;;;;;12.95;6.70;;;12.30;85.70;;;;;;5037444;28;20017;-43
2022/06/13 03:16:02;;;;;;;11.65;7.40;;;12.30;85.80;;;;;;5028893;28;20120;-42
2022/06/13 03:18:36;;;;;;;12.57;6.63;;;12.30;85.90;;;;;;5031741;28;20589;-43
2022/06/13 03:21:24;;;;;;;15.63;6.90;;;12.30;85.90;;;;;;5012931;28;20465;-42
2022/06/13 03:24:01;;;;;;;10.98;6.05;;;12.30;86.00;;;;;;5030605;28;20025;-43
2022/06/13 03:26:33;;;;;;;13.30;6.95;;;12.30;86.10;;;;;;5045919;28;20132;-44
2022/06/13 03:29:22;;;;;;;13.10;6.93;;;12.30;86.20;;;;;;5046559;28;20039;-42
2022/06/13 03:31:54;;;;;;;12.88;7.53;;;12.30;86.20;;;;;;5030262;28;20029;-42
2022/06/13 03:34:29;;;;;;;10.13;5.68;;;12.40;86.20;;;;;;5030804;28;20021;-42
2022/06/13 03:37:14;;;;;;;13.98;6.65;;;12.40;86.30;;;;;;5045109;28;20088;-42
2022/06/13 03:39:51;;;;;;;15.18;7.35;;;12.40;86.10;;;;;;5030445;28;20345;-43
2022/06/13 03:42:36;;;;;;;14.13;7.20;;;12.50;86.10;;;;;;5030460;28;20030;-42
2022/06/13 03:45:24;;;;;;;12.80;6.78;;;12.50;86.20;;;;;;5030381;28;20033;-43
2022/06/13 03:47:58;;;;;;;16.15;6.60;;;12.60;86.20;;;;;;5034158;28;20106;-43
2022/06/13 03:50:53;;;;;;;13.85;6.28;;;12.60;86.00;;;;;;5042804;28;20346;-43
2022/06/13 03:53:39;;;;;;;12.20;6.00;;;12.60;86.20;;;;;;4991993;28;20696;-42
2022/06/13 03:56:16;;;;;;;15.15;6.78;;;12.70;86.20;;;;;;5014442;28;20037;-42
2022/06/13 03:58:54;;;;;;;12.20;7.18;;;12.70;86.00;;;;;;5032693;28;20037;-42
2022/06/13 04:02:06;;;;;;;16.35;6.18;;;12.70;86.10;;;;;;5032994;28;20112;-42
2022/06/13 04:04:44;;;;;;;11.85;6.30;;;12.80;86.10;;;;;;5018428;28;20037;-42
2022/06/13 04:07:11;;;;;;;13.50;6.35;;;12.80;86.00;;;;;;5030213;28;20033;-44
2022/06/13 04:10:02;;;;;;;11.80;6.63;;;12.90;85.80;;;;;;5022390;28;20028;-42
2022/06/13 04:12:50;;;;;;;13.50;7.72;;;12.80;85.80;;;;;;5012864;28;20025;-42
2022/06/13 04:15:36;;;;;;;15.60;6.32;;;12.90;85.80;;;;;;5029482;28;20041;-42
2022/06/13 04:18:30;;;;;;;13.00;6.05;;;12.90;85.80;;;;;;5029623;28;20025;-43
2022/06/13 04:21:09;;;;;;;11.00;6.35;;;12.90;85.80;;;;;;5032533;28;20030;-42
2022/06/13 04:23:56;;;;;;;13.27;6.00;;;12.90;85.90;;;;;;5012129;28;20040;-44
2022/06/13 04:27:07;;;;;;;12.55;6.07;;;13.00;85.70;;;;;;4999194;28;20127;-43
2022/06/13 04:29:56;;;;;;;11.88;5.63;;;13.00;85.70;;;;;;5009027;28;20497;-42
2022/06/13 04:32:29;;;;;;;13.50;6.78;;;13.00;85.30;;;;;;5029509;28;20041;-43
2022/06/13 04:34:57;;;;;;;8.45;5.40;;;13.00;85.40;;;;;;5029583;28;20029;-43
2022/06/13 04:37:24;;;;;;;20.15;7.10;;;13.00;85.30;;;;;;5028316;28;20050;-43
2022/06/13 04:39:58;;;;;;;12.35;5.88;;;13.20;85.30;;;;;;5043773;28;20025;-43
2022/06/13 04:42:26;;;;;;;13.23;6.72;;;13.20;85.10;;;;;;5022680;28;20090;-42
2022/06/13 04:44:57;;;;;;;21.20;6.63;;;13.30;84.90;;;;;;5027964;28;20041;-42
2022/06/13 04:47:25;;;;;;;10.02;5.38;;;13.30;84.60;;;;;;5029412;28;20033;-42
2022/06/13 04:49:59;;;;;;;11.43;4.93;;;13.40;84.30;;;;;;5043762;28;20038;-47
2022/06/13 04:52:31;;;;;;;19.67;5.60;;;13.40;84.50;;;;;;5011933;28;20456;-43
2022/06/13 04:55:09;;;;;;;11.98;5.78;;;13.50;84.30;;;;;;5027440;28;20282;-43
2022/06/13 04:57:37;;;;;;;11.45;5.50;;;13.50;84.20;;;;;;5028033;28;20025;-45
2022/06/13 05:00:06;;;;;;;22.20;6.45;;;13.60;84.20;;;;;;5012586;28;20098;-45
2022/06/13 05:02:43;;;;;;;10.10;5.40;;;13.70;84.20;;;;;;5028800;28;20040;-42
2022/06/13 05:05:36;;;;;;;12.70;5.07;;;13.80;84.10;;;;;;5027579;28;20171;-44
2022/06/13 05:08:25;;;;;;;13.05;5.55;;;13.90;83.50;;;;;;5026346;28;20021;-43
2022/06/13 05:11:00;;;;;;;15.52;4.82;;;14.00;83.60;;;;;;5027230;28;20048;-43
2022/06/13 05:13:27;;;;;;;11.68;4.95;;;14.10;83.40;;;;;;4994486;28;20463;-42
2022/06/13 05:16:12;;;;;;;11.13;5.00;;;14.30;82.80;;;;;;5027744;28;20038;-45
2022/06/13 05:19:09;;;;;;;15.30;4.30;;;14.40;82.50;;;;;;5019887;28;20067;-42
2022/06/13 05:21:34;;;;;;;9.93;3.92;;;14.30;82.00;;;;;;5043345;28;20029;-43
2022/06/13 05:24:25;;;;;;;11.32;3.67;;;14.40;82.60;;;;;;5027462;28;20035;-41
2022/06/13 05:26:51;;;;;;;10.60;4.10;;;14.10;83.10;;;;;;5009355;28;20042;-42
2022/06/13 05:29:18;;;;;;;8.05;2.55;;;13.90;82.90;;;;;;5027322;28;20060;-43
2022/06/13 05:31:45;;;;;;;7.10;2.58;;;13.80;82.20;;;;;;5027348;28;20431;-47
2022/06/13 05:34:24;;;;;;;6.53;2.00;;;13.50;81.90;;;;;;5027297;28;20037;-43
2022/06/13 05:36:51;;;;;;;5.40;2.42;;;13.40;82.10;;;;;;5026926;28;20029;-44
2022/06/13 05:39:18;;;;;;;9.07;2.15;;;13.10;81.60;;;;;;5029006;28;20045;-42
2022/06/13 05:41:45;;;;;;;7.40;1.80;;;12.90;82.40;;;;;;5013103;28;20033;-44
2022/06/13 05:44:12;;;;;;;3.55;1.35;;;13.00;82.50;;;;;;5028148;28;20109;-45
2022/06/13 05:46:42;;;;;;;3.13;1.42;;;12.70;82.60;;;;;;5010071;28;20022;-47
2022/06/13 05:49:17;;;;;;;4.47;1.55;;;12.50;83.20;;;;;;5013392;28;20080;-46
2022/06/13 05:51:44;;;;;;;5.40;1.60;;;12.40;83.90;;;;;;5031880;28;20072;-47
2022/06/13 05:54:11;;;;;;;4.90;1.83;;;12.30;84.90;;;;;;5014701;28;20034;-51
2022/06/13 05:56:39;;;;;;;5.57;1.40;;;12.20;85.40;;;;;;5031575;28;20025;-48
2022/06/13 05:59:07;;;;;;;7.03;1.33;;;12.20;85.80;;;;;;5032068;28;20061;-50
2022/06/13 06:01:36;;;;;;;4.97;1.45;;;12.10;86.60;;;;;;5029725;28;20067;-49
2022/06/13 06:04:03;;;;;;;6.78;1.50;;;12.10;86.80;;;;;;5030957;28;20087;-52
2022/06/13 06:06:34;;;;;;;6.25;1.85;;;12.10;87.10;;;;;;5030203;28;20462;-51
2022/06/13 06:09:01;;;;;;;4.18;1.40;;;12.00;87.30;;;;;;5031953;28;20045;-50
2022/06/13 06:11:30;;;;;;;6.30;1.73;;;12.20;87.40;;;;;;5029428;28;20442;-47
2022/06/13 06:13:59;;;;;;;8.40;2.00;;;12.20;87.30;;;;;;5015563;28;20441;-46
2022/06/13 06:16:27;;;;;;;5.70;1.30;;;12.40;87.50;;;;;;5031385;28;20044;-47
2022/06/13 06:18:54;;;;;;;5.45;1.60;;;12.50;87.70;;;;;;5031418;28;20039;-46
2022/06/13 06:21:23;;;;;;;5.97;1.65;;;12.60;87.20;;;;;;5031657;28;20061;-45
2022/06/13 06:23:51;;;;;;;2.97;1.50;;;12.80;87.40;;;;;;5033427;28;20029;-45
2022/06/13 06:26:23;;;;;;;6.57;2.13;;;13.00;86.70;;;;;;5031489;28;20037;-45
2022/06/13 06:28:50;;;;;;;4.72;1.35;;;13.30;86.70;;;;;;5050227;28;20092;-44
2022/06/13 06:31:18;;;;;;;4.55;1.42;;;13.40;86.30;;;;;;5015729;28;20348;-43
2022/06/13 06:33:45;;;;;;;4.57;1.67;;;13.70;86.00;;;;;;5013082;28;20468;-42
2022/06/13 06:36:12;;;;;;;3.67;1.30;;;13.80;85.30;;;;;;5031703;28;20059;-42
2022/06/13 06:38:39;;;;;;;4.30;1.75;;;13.90;85.00;;;;;;5029235;28;20057;-43
2022/06/13 06:41:06;;;;;;;5.07;1.42;;;14.00;84.80;;;;;;5031692;28;20025;-41
2022/06/13 06:43:33;;;;;;;5.85;1.80;;;14.10;84.50;;;;;;5015609;28;20034;-42
2022/06/13 06:46:00;;;;;;;7.03;1.75;;;14.20;84.20;;;;;;5030508;28;20442;-41
2022/06/13 06:48:28;;;;;;;4.50;0.85;;;14.40;83.90;;;;;;5030701;28;20083;-40
2022/06/13 06:50:55;;;;;;;5.57;1.50;;;14.40;83.40;;;;;;5031296;28;20029;-40
2022/06/13 06:53:24;;;;;;;4.28;1.40;;;14.50;83.60;;;;;;5018257;28;20106;-40
2022/06/13 07:01:23;;;;;;;2.78;0.85;;;15.10;81.80;;;;;;5026506;28;21740;-41
2022/06/13 07:03:50;;;;;;;3.65;1.10;;;15.40;81.20;;;;;;5011643;28;20053;-39
2022/06/13 07:06:17;;;;;;;1.92;0.85;;;15.40;79.50;;;;;;5031512;28;20530;-39
2022/06/13 07:08:45;;;;;;;4.10;1.10;;;15.10;79.50;;;;;;5013954;28;20113;-41
2022/06/13 07:14:11;;;;;;;5.30;1.38;;;15.60;80.40;;;;;;5031158;28;20037;-40
2022/06/13 07:16:38;;;;;;;3.63;1.20;;;15.80;78.30;;;;;;5035537;28;20178;-41
2022/06/13 07:19:06;;;;;;;3.15;1.15;;;16.20;77.80;;;;;;5050640;28;20039;-40
2022/06/13 07:21:33;;;;;;;2.40;1.10;;;16.80;78.60;;;;;;5014095;28;20180;-41
2022/06/13 07:24:00;;;;;;;5.97;1.30;;;17.20;77.00;;;;;;5030206;28;20040;-41
2022/06/13 07:26:27;;;;;;;3.53;1.30;;;17.50;75.70;;;;;;5029786;28;20029;-43
2022/06/13 07:28:55;;;;;;;3.75;1.00;;;17.80;73.20;;;;;;5046149;28;20026;-44
2022/06/13 07:31:31;;;;;;;5.63;1.20;;;17.80;72.20;;;;;;5030419;28;20037;-43
2022/06/13 07:33:57;;;;;;;7.68;1.10;;;18.30;72.90;;;;;;5012915;28;20357;-47
2022/06/13 07:36:24;;;;;;;4.35;1.00;;;18.20;70.50;;;;;;5041832;28;20041;-43
2022/06/13 07:38:52;;;;;;;7.80;1.67;;;18.50;70.70;;;;;;5023544;28;20398;-42
2022/06/13 07:41:22;;;;;;;5.15;1.63;;;18.80;70.80;;;;;;5001696;28;20034;-44
2022/06/13 07:43:54;;;;;;;6.20;1.50;;;19.20;69.60;;;;;;4990481;28;20041;-43
2022/06/13 07:46:25;;;;;;;3.75;0.88;;;18.90;67.50;;;;;;5006582;28;20391;-44
2022/06/13 07:48:55;;;;;;;4.00;1.42;;;18.00;70.40;;;;;;4993380;28;20041;-42
2022/06/13 07:51:23;;;;;;;5.68;0.80;;;17.40;72.80;;;;;;4992465;28;20471;-42
2022/06/13 07:53:50;;;;;;;4.15;1.20;;;16.80;74.40;;;;;;5009570;28;20030;-49
2022/06/13 07:56:23;;;;;;;3.42;0.88;;;15.60;76.40;;;;;;5010480;28;20032;-48
2022/06/13 07:58:52;;;;;;;3.72;0.85;;;15.00;78.90;;;;;;4992987;28;20029;-48
2022/06/13 08:01:20;;;;;;;3.38;1.00;;;14.60;79.10;;;;;;5011225;28;20103;-46
2022/06/13 08:03:47;;;;;;;4.25;1.25;;;14.30;80.10;;;;;;4995647;28;20125;-45
2022/06/13 08:06:16;;;;;;;3.63;1.35;;;14.10;81.30;;;;;;4994048;28;20040;-45
2022/06/13 08:08:47;;;;;;;9.57;1.58;;;13.90;81.80;;;;;;5009200;28;20026;-44
2022/06/13 08:11:38;;;;;;;4.63;0.95;;;14.00;82.30;;;;;;4987858;28;20398;-44
2022/06/13 08:14:06;;;;;;;4.43;0.95;;;14.60;82.60;;;;;;5009662;28;20026;-43
2022/06/13 08:16:35;;;;;;;5.57;1.17;;;15.60;81.40;;;;;;5016844;28;20053;-44
2022/06/13 08:19:05;;;;;;;4.60;1.13;;;16.70;80.10;;;;;;5009658;28;20038;-41
2022/06/13 08:21:33;;;;;;;;;;;18.00;77.10;;;;;;5009604;28;20082;-44
2022/06/13 08:24:00;;;;;;;3.45;1.08;;;18.60;73.70;;;;;;5012349;28;19909;-43
2022/06/13 08:26:29;;;;;;;3.90;1.58;;;19.10;73.40;;;;;;5009239;28;20471;-41
2022/06/13 08:28:56;;;;;;;3.42;1.20;;;19.60;71.80;;;;;;5010124;28;20351;-43
2022/06/13 08:31:24;;;;;;;5.57;1.27;;;19.40;69.70;;;;;;5008993;28;20034;-44
2022/06/13 08:33:51;;;;;;;5.65;1.20;;;18.40;70.70;;;;;;4992731;28;20034;-43
2022/06/13 08:36:17;;;;;;;2.80;0.88;;;17.40;72.80;;;;;;5009610;28;20707;-44
2022/06/13 08:38:44;;;;;;;3.92;0.70;;;17.20;74.70;;;;;;4992256;28;20061;-44
2022/06/13 08:41:34;;;;;;;1.98;0.40;;;16.60;71.50;;;;;;5010456;28;20022;-43
2022/06/13 08:44:11;;;;;;;4.15;0.90;;;17.00;71.90;;;;;;5029842;28;20025;-47
2022/06/13 08:47:04;;;;;;;3.08;0.75;;;17.90;70.40;;;;;;5023047;28;20558;-44
2022/06/13 08:49:36;;;;;;;6.25;0.93;;;18.50;67.40;;;;;;5009568;28;20024;-44
2022/06/13 08:52:28;;;;;;;1.90;0.70;;;18.90;67.40;;;;;;5024102;28;20030;-44
2022/06/13 08:55:25;;;;;;;2.00;0.75;;;18.30;64.90;;;;;;5009928;28;20109;-43
2022/06/13 08:58:37;;;;;;;3.67;0.70;;;18.50;63.00;;;;;;5022625;28;20075;-45
2022/06/13 09:01:31;;;;;;;4.43;1.17;;;18.20;63.00;;;;;;5029354;28;20029;-44
2022/06/13 09:04:16;;;;;;;2.17;0.60;;;18.60;62.60;;;;;;4992405;28;20036;-45
2022/06/13 09:07:14;;;;;;;2.35;0.55;;;18.70;64.40;;;;;;5012353;28;20033;-45
2022/06/13 09:10:04;;;;;;;3.42;0.90;;;18.90;62.40;;;;;;4984693;28;20047;-45
2022/06/13 09:12:52;;;;;;;6.07;1.50;;;18.40;65.00;;;;;;5008917;28;20032;-44
2022/06/13 09:15:42;;;;;;;4.15;0.88;;;18.00;65.80;;;;;;5010545;28;20021;-44
2022/06/13 09:18:32;;;;;;;3.88;1.00;;;17.70;67.60;;;;;;5008972;28;20096;-44
2022/06/13 09:21:21;;;;;;;4.80;0.77;;;17.00;66.80;;;;;;4997132;28;20034;-47
2022/06/13 09:24:15;;;;;;;3.20;1.15;;;16.60;67.20;;;;;;5035401;28;20040;-45
2022/06/13 09:27:04;;;;;;;2.88;0.77;;;16.30;69.60;;;;;;5012556;28;20057;-44
2022/06/13 09:29:35;;;;;;;5.35;1.27;;;15.90;73.00;;;;;;5035960;28;20037;-45
2022/06/13 09:32:32;;;;;;;5.55;1.27;;;15.90;74.00;;;;;;5017186;28;20041;-45
2022/06/13 09:35:15;;;;;;;7.00;2.20;;;15.80;72.10;;;;;;5035929;28;20382;-45
2022/06/13 09:38:05;;;;;;;4.55;1.00;;;16.20;73.40;;;;;;5009456;28;20061;-47
2022/06/13 09:41:01;;;;;;;5.18;1.52;;;17.10;72.50;;;;;;5054944;28;20025;-44
2022/06/13 09:43:50;;;;;;;4.10;0.90;;;17.80;68.00;;;;;;5015925;28;20030;-45
2022/06/13 09:46:37;;;;;;;4.10;1.83;;;17.70;66.00;;;;;;5020844;28;20022;-44
2022/06/13 09:49:21;;;;;;;3.75;1.15;;;16.90;68.00;;;;;;5035732;28;20397;-45
2022/06/13 09:52:11;;;;;;;5.43;0.80;;;16.40;69.90;;;;;;5043345;28;20036;-46
2022/06/13 09:55:14;;;;;;;2.97;0.70;;;16.90;70.30;;;;;;5055718;28;20434;-44
2022/06/13 09:57:52;;;;;;;1.90;0.77;;;17.20;67.50;;;;;;5038555;28;20037;-46
2022/06/13 10:00:39;;;;;;;2.70;0.98;;;16.70;64.80;;;;;;5034449;28;20029;-46
2022/06/13 10:03:30;;;;;;;4.10;0.90;;;16.40;67.80;;;;;;5051392;28;20029;-47
2022/06/13 10:06:01;;;;;;;4.18;0.90;;;16.20;69.70;;;;;;5049264;28;20330;-45
2022/06/13 10:08:46;;;;;;;5.10;1.15;;;16.10;70.30;;;;;;5055699;28;20442;-44
2022/06/13 10:11:29;;;;;;;7.18;0.88;;;16.10;70.50;;;;;;5053634;28;20078;-44
2022/06/13 10:14:15;;;;;;;3.88;1.48;;;16.40;71.50;;;;;;5055550;28;20121;-46
2022/06/13 10:17:08;;;;;;;4.53;1.27;;;16.40;71.40;;;;;;5037456;28;20040;-47
2022/06/13 10:20:07;;;;;;;2.53;0.77;;;16.50;68.50;;;;;;5053474;28;20043;-44
2022/06/13 10:23:00;;;;;;;2.83;0.90;;;16.40;69.90;;;;;;5055530;28;20043;-45
2022/06/13 10:25:35;;;;;;;5.97;1.30;;;16.90;69.20;;;;;;5036552;28;20064;-45
2022/06/13 10:28:22;;;;;;;5.78;1.05;;;16.90;67.80;;;;;;5038272;28;20033;-45
2022/06/13 10:31:20;;;;;;;3.65;0.93;;;16.70;66.60;;;;;;5035416;28;20588;-45
2022/06/13 10:34:10;;;;;;;4.57;1.20;;;17.00;67.40;;;;;;5037330;28;20124;-44
2022/06/13 10:37:12;;;;;;;2.38;0.90;;;16.90;68.50;;;;;;5052249;28;20029;-45
2022/06/13 10:39:39;;;;;;;5.15;1.02;;;17.20;70.00;;;;;;5023906;28;20025;-45
2022/06/13 10:42:15;;;;;;;4.57;0.90;;;17.60;65.80;;;;;;5009024;28;20029;-46
2022/06/13 10:44:41;;;;;;;7.10;1.48;;;18.00;65.10;;;;;;5030722;28;20041;-47
2022/06/13 10:47:18;;;;;;;9.20;1.65;;;18.40;65.80;;;;;;5032323;28;20025;-47
2022/06/13 10:49:51;;;;;;;4.78;1.23;;;18.30;65.40;;;;;;5020501;28;20080;-46
2022/06/13 10:52:23;;;;;;;8.45;1.20;;;18.70;66.90;;;;;;5010705;28;20022;-44
2022/06/13 10:55:03;;;;;;;8.43;1.40;;;18.80;63.40;;;;;;5011306;28;20041;-45
2022/06/13 10:57:49;;;;;;;8.73;1.45;;;19.30;63.40;;;;;;5011939;28;20041;-45
2022/06/13 11:00:26;;;;;;;2.78;1.15;;;19.80;62.70;;;;;;5007976;28;20037;-46
2022/06/13 11:03:15;;;;;;;6.25;1.70;;;19.90;61.40;;;;;;5027198;28;20332;-46
2022/06/13 11:06:02;;;;;;;5.65;1.25;;;19.80;61.10;;;;;;5010298;28;20040;-45
2022/06/13 11:08:30;;;;;;;6.10;1.58;;;19.90;62.00;;;;;;5012029;28;20026;-45
2022/06/13 11:11:16;;;;;;;3.65;1.27;;;19.20;59.80;;;;;;5010797;28;20021;-45
2022/06/13 11:13:53;;;;;;;8.43;1.77;;;18.10;63.00;;;;;;5012024;28;20053;-44
2022/06/13 11:22:37;;;;;;;7.00;1.88;;;18.60;63.30;;;;;;5011574;28;20084;-45
2022/06/13 11:25:26;;;;;;;5.68;1.45;;;18.60;63.40;;;;;;5011323;28;20030;-44
2022/06/13 11:28:21;;;;;;;7.72;1.60;;;18.40;63.70;;;;;;5011468;28;20037;-44
2022/06/13 11:31:02;;;;;;;5.82;2.22;;;18.30;63.90;;;;;;5011085;28;20022;-45
2022/06/13 11:33:40;;;;;;;9.18;1.50;;;18.50;63.90;;;;;;4994195;28;20030;-45
2022/06/13 11:36:15;;;;;;;9.60;1.73;;;18.50;63.60;;;;;;5022137;28;20029;-46
2022/06/13 11:39:04;;;;;;;7.88;2.25;;;17.80;64.60;;;;;;5031162;28;20045;-45
2022/06/13 11:41:48;;;;;;;8.07;1.92;;;17.30;67.10;;;;;;5011063;28;20041;-45
2022/06/13 11:44:21;;;;;;;9.00;1.80;;;16.90;67.60;;;;;;5012784;28;20065;-47
2022/06/13 11:46:59;;;;;;;11.82;3.67;;;16.90;68.10;;;;;;4991645;28;20405;-46
2022/06/13 11:49:39;;;;;;;6.28;1.95;;;16.70;66.60;;;;;;4975055;28;20403;-45
2022/06/13 11:52:13;;;;;;;8.60;1.48;;;17.20;67.70;;;;;;5011110;28;20014;-44
2022/06/13 11:54:55;;;;;;;7.47;3.03;;;18.00;66.60;;;;;;5010912;28;20048;-45
2022/06/13 11:57:40;;;;;;;10.88;2.30;;;18.80;67.60;;;;;;5011137;28;20037;-45
2022/06/13 12:00:15;;;;;;;13.95;2.97;;;18.30;65.50;;;;;;5010564;28;20029;-45
2022/06/13 12:02:56;;;;;;;8.82;2.30;;;17.80;64.20;;;;;;5010818;28;20030;-45
2022/06/13 12:05:42;;;;;;;9.07;2.72;;;17.60;65.90;;;;;;5010209;28;20482;-47
2022/06/13 12:08:29;;;;;;;8.55;2.30;;;17.50;65.30;;;;;;5010768;28;20080;-46
2022/06/13 12:10:57;;;;;;;17.25;3.42;;;17.40;65.20;;;;;;5010034;28;20376;-45
2022/06/13 12:13:26;;;;;;;13.85;3.40;;;16.90;66.30;;;;;;5010775;28;20022;-45
2022/06/13 12:16:19;;;;;;;11.15;2.72;;;16.70;68.60;;;;;;5016981;28;20040;-45
2022/06/13 12:19:07;;;;;;;8.65;2.88;;;16.50;70.00;;;;;;5029274;28;20049;-45
2022/06/13 12:22:23;;;;;;;9.38;2.20;;;16.40;70.30;;;;;;5014330;28;20029;-45
2022/06/13 12:25:26;;;;;;;14.80;3.42;;;16.70;71.40;;;;;;4968727;28;20337;-45
2022/06/13 12:28:12;;;;;;;15.35;3.45;;;17.40;67.60;;;;;;4949936;29;20031;-45
2022/06/13 12:30:59;;;;;;;11.60;3.17;;;17.10;66.90;;;;;;4956083;28;20348;-45
2022/06/13 12:33:53;;;;;;;7.07;2.28;;;16.90;68.50;;;;;;4969287;28;20490;-45
2022/06/13 12:36:46;;;;;;;8.63;1.92;;;17.30;66.50;;;;;;4968831;28;20041;-45
2022/06/13 12:40:03;;;;;;;7.85;1.90;;;17.50;64.70;;;;;;4953233;28;20054;-46
2022/06/13 12:43:05;;;;;;;6.63;1.40;;;17.70;65.70;;;;;;4927325;28;20046;-45
2022/06/13 12:45:36;;;;;;;7.68;1.92;;;17.30;64.10;;;;;;4955902;28;20468;-45
2022/06/13 12:48:29;;;;;;;6.13;1.95;;;17.50;67.60;;;;;;4968899;28;20213;-46
2022/06/13 12:51:21;;;;;;;8.45;2.08;;;17.80;65.10;;;;;;4952157;28;20115;-46
2022/06/13 12:54:02;;;;;;;14.80;2.40;;;17.50;66.00;;;;;;4952988;28;20039;-45
2022/06/13 12:57:09;;;;;;;9.73;2.45;;;17.40;68.30;;;;;;4968175;28;20045;-47
2022/06/13 13:00:01;;;;;;;7.97;2.10;;;17.20;65.90;;;;;;4984485;28;20034;-45
2022/06/13 13:03:04;;;;;;;8.40;2.03;;;17.10;66.30;;;;;;5009356;28;20060;-45
2022/06/13 13:06:07;;;;;;;11.52;1.70;;;16.90;66.00;;;;;;5009546;28;20030;-47
2022/06/13 13:08:56;;;;;;;7.18;1.90;;;16.60;68.00;;;;;;5009872;28;20100;-46
2022/06/13 13:11:34;;;;;;;6.72;1.40;;;16.60;69.20;;;;;;5012638;28;20053;-46
2022/06/13 13:14:23;;;;;;;6.25;1.60;;;16.80;68.50;;;;;;5028692;28;20147;-47
2022/06/13 13:17:14;;;;;;;7.43;1.73;;;17.30;67.50;;;;;;5027038;28;20041;-45
2022/06/13 13:19:43;;;;;;;9.68;2.03;;;17.60;65.50;;;;;;5029195;28;20041;-45
2022/06/13 13:22:27;;;;;;;5.47;1.27;;;17.90;66.70;;;;;;5014847;28;20511;-45
2022/06/13 13:24:56;;;;;;;6.95;1.63;;;18.00;64.10;;;;;;4992444;28;20096;-45
2022/06/13 13:27:26;;;;;;;3.72;1.45;;;17.80;64.10;;;;;;5023157;28;20091;-45
2022/06/13 13:30:37;;;;;;;7.97;2.30;;;17.70;65.10;;;;;;5029719;28;20460;-45
2022/06/13 13:33:39;;;;;;;8.23;2.10;;;17.80;64.30;;;;;;5010351;28;20180;-44
2022/06/13 13:36:17;;;;;;;7.68;1.83;;;18.10;64.20;;;;;;5023458;28;20056;-46
2022/06/13 13:38:50;;;;;;;8.00;1.75;;;17.90;64.50;;;;;;5025578;28;20056;-46
2022/06/13 13:41:44;;;;;;;8.68;1.73;;;18.00;65.50;;;;;;5009224;28;20099;-46
2022/06/13 13:44:33;;;;;;;6.72;2.28;;;17.70;65.80;;;;;;5011110;28;20374;-46
2022/06/13 13:47:20;;;;;;;8.35;1.85;;;18.10;66.50;;;;;;5011556;28;20041;-44
2022/06/13 13:50:02;;;;;;;11.93;2.42;;;18.50;66.10;;;;;;5028567;28;20021;-46
2022/06/13 13:52:50;;;;;;;7.47;1.83;;;18.30;64.10;;;;;;5029297;28;20041;-48
2022/06/13 13:55:24;;;;;;;12.45;2.40;;;18.40;65.70;;;;;;5028458;28;20021;-46
2022/06/13 13:58:37;;;;;;;8.30;2.40;;;18.50;64.40;;;;;;5029060;28;20469;-48
2022/06/13 14:01:31;;;;;;;9.18;2.83;;;18.20;65.90;;;;;;5025799;28;20065;-48
2022/06/13 14:04:02;;;;;;;7.18;2.55;;;17.60;67.10;;;;;;5048944;28;20501;-45